createdAt,value
2017-02-07T00:00:09.771Z,72952
2017-02-07T00:00:19.922Z,72952
2017-02-07T00:00:30.459Z,72955
2017-02-07T00:00:40.975Z,72952
2017-02-07T00:00:51.509Z,72958
2017-02-07T00:01:02.023Z,72954
2017-02-07T00:01:12.551Z,72957
2017-02-07T00:01:23.056Z,72954
2017-02-07T00:01:33.588Z,72956
2017-02-07T00:01:44.127Z,72955
2017-02-07T00:01:54.651Z,72956
2017-02-07T00:02:04.773Z,72955
2017-02-07T00:02:15.288Z,72954
2017-02-07T00:02:25.442Z,72954
2017-02-07T00:02:35.958Z,72952
2017-02-07T00:02:46.472Z,72954
2017-02-07T00:02:57.019Z,72954
2017-02-07T00:03:07.183Z,72955
2017-02-07T00:03:17.710Z,72954
2017-02-07T00:03:28.243Z,72952
2017-02-07T00:03:38.776Z,72952
2017-02-07T00:03:49.274Z,72953
2017-02-07T00:03:59.813Z,72954
2017-02-07T00:04:10.326Z,72955
2017-02-07T00:04:21.121Z,72952
2017-02-07T00:04:31.638Z,72949
2017-02-07T00:04:42.163Z,72954
2017-02-07T00:04:52.684Z,72954
2017-02-07T00:05:03.219Z,72953
2017-02-07T00:05:12.977Z,72951
2017-02-07T00:05:23.151Z,72952
2017-02-07T00:05:33.687Z,72954
2017-02-07T00:05:44.214Z,72956
2017-02-07T00:05:54.761Z,72954
2017-02-07T00:06:05.286Z,72958
2017-02-07T00:06:15.419Z,72955
2017-02-07T00:06:25.763Z,72960
2017-02-07T00:06:36.284Z,72958
2017-02-07T00:06:46.793Z,72955
2017-02-07T00:06:57.311Z,72960
2017-02-07T00:07:07.070Z,72956
2017-02-07T00:07:17.214Z,72959
2017-02-07T00:07:27.753Z,72955
2017-02-07T00:07:38.276Z,72955
2017-02-07T00:07:48.821Z,72957
2017-02-07T00:07:58.970Z,72957
2017-02-07T00:08:09.136Z,72955
2017-02-07T00:08:19.686Z,72956
2017-02-07T00:08:30.211Z,72956
2017-02-07T00:08:40.710Z,72957
2017-02-07T00:08:50.881Z,72961
2017-02-07T00:09:01.401Z,72956
2017-02-07T00:09:11.912Z,72957
2017-02-07T00:09:22.087Z,72960
2017-02-07T00:09:32.611Z,72959
2017-02-07T00:09:42.763Z,72961
2017-02-07T00:09:52.566Z,72963
2017-02-07T00:10:03.061Z,72962
2017-02-07T00:10:13.556Z,72960
2017-02-07T00:10:24.087Z,72963
2017-02-07T00:10:34.623Z,72960
2017-02-07T00:10:45.153Z,72959
2017-02-07T00:10:55.656Z,72961
2017-02-07T00:11:06.204Z,72959
2017-02-07T00:11:16.736Z,72963
2017-02-07T00:11:26.877Z,72964
2017-02-07T00:11:36.994Z,72961
2017-02-07T00:11:47.505Z,72961
2017-02-07T00:11:58.037Z,72958
2017-02-07T00:12:08.550Z,72957
2017-02-07T00:12:19.068Z,72955
2017-02-07T00:12:29.205Z,72961
2017-02-07T00:12:39.365Z,72956
2017-02-07T00:12:49.895Z,72956
2017-02-07T00:13:00.409Z,72954
2017-02-07T00:13:10.554Z,72955
2017-02-07T00:13:20.688Z,72952
2017-02-07T00:13:30.829Z,72954
2017-02-07T00:13:41.360Z,72957
2017-02-07T00:13:51.864Z,72955
2017-02-07T00:14:02.017Z,72954
2017-02-07T00:14:11.805Z,72954
2017-02-07T00:14:21.953Z,72954
2017-02-07T00:14:32.479Z,72954
2017-02-07T00:14:42.633Z,72958
2017-02-07T00:14:53.153Z,72957
2017-02-07T00:15:03.651Z,72957
2017-02-07T00:15:13.805Z,72955
2017-02-07T00:15:23.948Z,72951
2017-02-07T00:15:34.470Z,72954
2017-02-07T00:15:44.983Z,72950
2017-02-07T00:15:55.489Z,72953
2017-02-07T00:16:05.997Z,72956
2017-02-07T00:16:15.782Z,72954
2017-02-07T00:16:25.942Z,72955
2017-02-07T00:16:36.464Z,72950
2017-02-07T00:16:46.990Z,72955
2017-02-07T00:16:57.136Z,72957
2017-02-07T00:17:07.679Z,72957
2017-02-07T00:17:17.458Z,72956
2017-02-07T00:17:27.973Z,72955
2017-02-07T00:17:38.488Z,72955
2017-02-07T00:17:49.010Z,72956
2017-02-07T00:17:59.162Z,72954
2017-02-07T00:18:09.671Z,72956
2017-02-07T00:18:20.201Z,72955
2017-02-07T00:18:30.725Z,72952
2017-02-07T00:18:40.882Z,72957
2017-02-07T00:18:51.405Z,72956
2017-02-07T00:19:01.940Z,72955
2017-02-07T00:19:12.467Z,72956
2017-02-07T00:19:22.627Z,72956
2017-02-07T00:19:33.157Z,72956
2017-02-07T00:19:43.692Z,72953
2017-02-07T00:19:54.210Z,72953
2017-02-07T00:20:04.736Z,72958
2017-02-07T00:20:14.882Z,72954
2017-02-07T00:20:25.412Z,72953
2017-02-07T00:20:35.936Z,72956
2017-02-07T00:20:46.477Z,72955
2017-02-07T00:20:56.999Z,72950
2017-02-07T00:21:07.525Z,72954
2017-02-07T00:21:17.661Z,72952
2017-02-07T00:21:28.152Z,72952
2017-02-07T00:21:38.655Z,72954
2017-02-07T00:21:49.167Z,72954
2017-02-07T00:21:59.704Z,72953
2017-02-07T00:22:10.236Z,72953
2017-02-07T00:22:20.767Z,72956
2017-02-07T00:22:31.277Z,72955
2017-02-07T00:22:41.804Z,72953
2017-02-07T00:22:52.315Z,72952
2017-02-07T00:23:02.459Z,72954
2017-02-07T00:23:12.962Z,72952
2017-02-07T00:23:23.494Z,72954
2017-02-07T00:23:34.019Z,72955
2017-02-07T00:23:44.540Z,72955
2017-02-07T00:23:55.061Z,72956
2017-02-07T00:24:05.578Z,72956
2017-02-07T00:24:15.743Z,72953
2017-02-07T00:24:25.892Z,72957
2017-02-07T00:24:36.426Z,72953
2017-02-07T00:24:46.926Z,72955
2017-02-07T00:24:57.650Z,72955
2017-02-07T00:25:08.183Z,72955
2017-02-07T00:25:18.361Z,72952
2017-02-07T00:25:28.514Z,72953
2017-02-07T00:25:38.666Z,72951
2017-02-07T00:25:49.204Z,72952
2017-02-07T00:25:59.718Z,72950
2017-02-07T00:26:10.253Z,72953
2017-02-07T00:26:20.775Z,72956
2017-02-07T00:26:30.927Z,72955
2017-02-07T00:26:41.431Z,72952
2017-02-07T00:26:51.944Z,72953
2017-02-07T00:27:02.490Z,72954
2017-02-07T00:27:12.997Z,72952
2017-02-07T00:27:23.155Z,72954
2017-02-07T00:27:33.675Z,72954
2017-02-07T00:27:44.195Z,72953
2017-02-07T00:27:54.711Z,72952
2017-02-07T00:28:05.226Z,72952
2017-02-07T00:28:15.363Z,72954
2017-02-07T00:28:25.895Z,72953
2017-02-07T00:28:36.411Z,72950
2017-02-07T00:28:46.936Z,72951
2017-02-07T00:28:57.455Z,72950
2017-02-07T00:29:07.983Z,72949
2017-02-07T00:29:18.152Z,72953
2017-02-07T00:29:28.676Z,72953
2017-02-07T00:29:39.201Z,72954
2017-02-07T00:29:49.724Z,72950
2017-02-07T00:30:00.243Z,72952
2017-02-07T00:30:10.809Z,72954
2017-02-07T00:30:20.985Z,72952
2017-02-07T00:30:31.131Z,72953
2017-02-07T00:30:41.287Z,72952
2017-02-07T00:30:51.793Z,72954
2017-02-07T00:31:02.312Z,72952
2017-02-07T00:31:12.510Z,72949
2017-02-07T00:31:23.035Z,72955
2017-02-07T00:31:33.558Z,72949
2017-02-07T00:31:44.072Z,72950
2017-02-07T00:31:54.598Z,72951
2017-02-07T00:32:05.349Z,72953
2017-02-07T00:32:15.497Z,72949
2017-02-07T00:32:25.635Z,72948
2017-02-07T00:32:36.144Z,72951
2017-02-07T00:32:46.677Z,72949
2017-02-07T00:32:57.195Z,72949
2017-02-07T00:33:07.718Z,72948
2017-02-07T00:33:18.236Z,72952
2017-02-07T00:33:28.773Z,72944
2017-02-07T00:33:39.306Z,72949
2017-02-07T00:33:49.817Z,72949
2017-02-07T00:34:00.325Z,72950
2017-02-07T00:34:10.865Z,72951
2017-02-07T00:34:20.678Z,72949
2017-02-07T00:34:30.845Z,72951
2017-02-07T00:34:41.385Z,72949
2017-02-07T00:34:51.898Z,72948
2017-02-07T00:35:02.392Z,72946
2017-02-07T00:35:12.922Z,72951
2017-02-07T00:35:22.734Z,72949
2017-02-07T00:35:33.256Z,72951
2017-02-07T00:35:43.772Z,72947
2017-02-07T00:35:54.295Z,72953
2017-02-07T00:36:04.819Z,72949
2017-02-07T00:36:14.959Z,72949
2017-02-07T00:36:25.110Z,72951
2017-02-07T00:36:35.275Z,72950
2017-02-07T00:36:45.432Z,72950
2017-02-07T00:36:55.946Z,72951
2017-02-07T00:37:06.481Z,72950
2017-02-07T00:37:16.998Z,72947
2017-02-07T00:37:27.492Z,72948
2017-02-07T00:37:37.630Z,72948
2017-02-07T00:37:48.147Z,72947
2017-02-07T00:37:58.672Z,72952
2017-02-07T00:38:08.833Z,72949
2017-02-07T00:38:19.004Z,72948
2017-02-07T00:38:29.507Z,72946
2017-02-07T00:38:39.647Z,72947
2017-02-07T00:38:50.167Z,72947
2017-02-07T00:39:00.701Z,72952
2017-02-07T00:39:11.213Z,72950
2017-02-07T00:39:21.364Z,72948
2017-02-07T00:39:31.902Z,72947
2017-02-07T00:39:42.434Z,72946
2017-02-07T00:39:52.597Z,72947
2017-02-07T00:40:02.766Z,72948
2017-02-07T00:40:13.286Z,72950
2017-02-07T00:40:23.432Z,72948
2017-02-07T00:40:33.942Z,72948
2017-02-07T00:40:44.450Z,72944
2017-02-07T00:40:54.969Z,72950
2017-02-07T00:41:05.507Z,72944
2017-02-07T00:41:15.287Z,72948
2017-02-07T00:41:25.425Z,72943
2017-02-07T00:41:35.937Z,72946
2017-02-07T00:41:46.070Z,72942
2017-02-07T00:41:56.602Z,72941
2017-02-07T00:42:07.102Z,72944
2017-02-07T00:42:17.273Z,72943
2017-02-07T00:42:27.813Z,72944
2017-02-07T00:42:38.332Z,72940
2017-02-07T00:42:48.829Z,72944
2017-02-07T00:42:59.344Z,72948
2017-02-07T00:43:09.500Z,72948
2017-02-07T00:43:19.647Z,72946
2017-02-07T00:43:29.796Z,72947
2017-02-07T00:43:40.309Z,72949
2017-02-07T00:43:50.837Z,72948
2017-02-07T00:44:01.343Z,72944
2017-02-07T00:44:11.862Z,72949
2017-02-07T00:44:22.029Z,72947
2017-02-07T00:44:32.559Z,72954
2017-02-07T00:44:42.714Z,72954
2017-02-07T00:44:53.249Z,72951
2017-02-07T00:45:03.037Z,72951
2017-02-07T00:45:13.217Z,72946
2017-02-07T00:45:23.757Z,72953
2017-02-07T00:45:34.265Z,72942
2017-02-07T00:45:44.816Z,72949
2017-02-07T00:45:55.352Z,72945
2017-02-07T00:46:05.874Z,72950
2017-02-07T00:46:16.419Z,72945
2017-02-07T00:46:26.952Z,72950
2017-02-07T00:46:37.480Z,72946
2017-02-07T00:46:47.980Z,72949
2017-02-07T00:46:58.486Z,72948
2017-02-07T00:47:09.002Z,72948
2017-02-07T00:47:19.516Z,72945
2017-02-07T00:47:30.044Z,72948
2017-02-07T00:47:40.183Z,72944
2017-02-07T00:47:50.699Z,72950
2017-02-07T00:48:01.221Z,72945
2017-02-07T00:48:11.765Z,72943
2017-02-07T00:48:21.915Z,72944
2017-02-07T00:48:32.053Z,72943
2017-02-07T00:48:42.554Z,72941
2017-02-07T00:48:53.098Z,72941
2017-02-07T00:49:03.611Z,72943
2017-02-07T00:49:14.134Z,72942
2017-02-07T00:49:24.271Z,72944
2017-02-07T00:49:34.777Z,72945
2017-02-07T00:49:45.291Z,72943
2017-02-07T00:49:55.809Z,72945
2017-02-07T00:50:05.965Z,72941
2017-02-07T00:50:16.103Z,72943
2017-02-07T00:50:26.622Z,72941
2017-02-07T00:50:37.140Z,72943
2017-02-07T00:50:47.291Z,72946
2017-02-07T00:50:57.825Z,72945
2017-02-07T00:51:07.956Z,72948
2017-02-07T00:51:18.462Z,72950
2017-02-07T00:51:27.859Z,72946
2017-02-07T00:51:38.379Z,72943
2017-02-07T00:51:48.886Z,72949
2017-02-07T00:51:59.387Z,72950
2017-02-07T00:52:09.552Z,72946
2017-02-07T00:52:20.075Z,72943
2017-02-07T00:52:30.218Z,72944
2017-02-07T00:52:40.759Z,72946
2017-02-07T00:52:51.284Z,72946
2017-02-07T00:53:01.809Z,72945
2017-02-07T00:53:12.321Z,72945
2017-02-07T00:53:22.477Z,72944
2017-02-07T00:53:32.991Z,72947
2017-02-07T00:53:43.509Z,72949
2017-02-07T00:53:54.035Z,72947
2017-02-07T00:54:04.552Z,72948
2017-02-07T00:54:15.080Z,72947
2017-02-07T00:54:25.229Z,72946
2017-02-07T00:54:35.756Z,72954
2017-02-07T00:54:46.278Z,72947
2017-02-07T00:54:56.791Z,72952
2017-02-07T00:55:06.937Z,72950
2017-02-07T00:55:17.443Z,72949
2017-02-07T00:55:27.610Z,72946
2017-02-07T00:55:38.188Z,72950
2017-02-07T00:55:48.709Z,72949
2017-02-07T00:55:59.240Z,72946
2017-02-07T00:56:09.390Z,72948
2017-02-07T00:56:19.915Z,72947
2017-02-07T00:56:30.073Z,72950
2017-02-07T00:56:40.602Z,72950
2017-02-07T00:56:51.128Z,72950
2017-02-07T00:57:01.654Z,72948
2017-02-07T00:57:11.438Z,72951
2017-02-07T00:57:21.940Z,72949
2017-02-07T00:57:32.444Z,72952
2017-02-07T00:57:42.966Z,72952
2017-02-07T00:57:53.441Z,72952
2017-02-07T00:58:03.980Z,72953
2017-02-07T00:58:14.501Z,72948
2017-02-07T00:58:25.013Z,72951
2017-02-07T00:58:35.530Z,72952
2017-02-07T00:58:45.660Z,72951
2017-02-07T00:58:56.159Z,72953
2017-02-07T00:59:06.312Z,72952
2017-02-07T00:59:16.080Z,72951
2017-02-07T00:59:26.617Z,72951
2017-02-07T00:59:37.137Z,72954
2017-02-07T00:59:47.868Z,72950
2017-02-07T00:59:58.392Z,72951
2017-02-07T01:00:08.913Z,72955
2017-02-07T01:00:19.439Z,72949
2017-02-07T01:00:29.943Z,72956
2017-02-07T01:00:40.480Z,72956
2017-02-07T01:00:51.000Z,72955
2017-02-07T01:01:01.513Z,72958
2017-02-07T01:01:12.052Z,72954
2017-02-07T01:01:22.588Z,72955
2017-02-07T01:01:32.735Z,72953
2017-02-07T01:01:42.872Z,72954
2017-02-07T01:01:53.404Z,72956
2017-02-07T01:02:03.570Z,72957
2017-02-07T01:02:14.096Z,72957
2017-02-07T01:02:24.604Z,72953
2017-02-07T01:02:35.132Z,72961
2017-02-07T01:02:45.663Z,72956
2017-02-07T01:02:56.202Z,72959
2017-02-07T01:03:06.726Z,72960
2017-02-07T01:03:17.236Z,72959
2017-02-07T01:03:27.731Z,72959
2017-02-07T01:03:38.247Z,72957
2017-02-07T01:03:48.781Z,72959
2017-02-07T01:03:59.317Z,72958
2017-02-07T01:04:09.477Z,72958
2017-02-07T01:04:20.011Z,72952
2017-02-07T01:04:30.545Z,72958
2017-02-07T01:04:41.052Z,72959
2017-02-07T01:04:51.570Z,72953
2017-02-07T01:05:02.091Z,72955
2017-02-07T01:05:12.623Z,72956
2017-02-07T01:05:23.161Z,72952
2017-02-07T01:05:33.310Z,72953
2017-02-07T01:05:43.481Z,72951
2017-02-07T01:05:53.989Z,72953
2017-02-07T01:06:04.137Z,72951
2017-02-07T01:06:14.643Z,72948
2017-02-07T01:06:24.427Z,72948
2017-02-07T01:06:34.930Z,72946
2017-02-07T01:06:45.445Z,72948
2017-02-07T01:06:55.966Z,72947
2017-02-07T01:07:06.472Z,72948
2017-02-07T01:07:16.981Z,72947
2017-02-07T01:07:27.514Z,72946
2017-02-07T01:07:38.023Z,72949
2017-02-07T01:07:48.543Z,72951
2017-02-07T01:07:59.064Z,72951
2017-02-07T01:08:09.574Z,72951
2017-02-07T01:08:19.722Z,72952
2017-02-07T01:08:30.238Z,72955
2017-02-07T01:08:40.395Z,72949
2017-02-07T01:08:50.916Z,72954
2017-02-07T01:09:01.442Z,72957
2017-02-07T01:09:11.987Z,72954
2017-02-07T01:09:22.496Z,72950
2017-02-07T01:09:33.023Z,72951
2017-02-07T01:09:42.812Z,72956
2017-02-07T01:09:53.329Z,72952
2017-02-07T01:10:03.477Z,72950
2017-02-07T01:10:13.632Z,72951
2017-02-07T01:10:23.771Z,72950
2017-02-07T01:10:34.311Z,72948
2017-02-07T01:10:44.827Z,72948
2017-02-07T01:10:54.991Z,72947
2017-02-07T01:11:05.521Z,72949
2017-02-07T01:11:15.665Z,72950
2017-02-07T01:11:26.174Z,72952
2017-02-07T01:11:36.701Z,72948
2017-02-07T01:11:46.868Z,72950
2017-02-07T01:11:57.453Z,72948
2017-02-07T01:12:07.620Z,72948
2017-02-07T01:12:18.153Z,72947
2017-02-07T01:12:28.687Z,72948
2017-02-07T01:12:39.205Z,72951
2017-02-07T01:12:49.743Z,72946
2017-02-07T01:13:00.263Z,72948
2017-02-07T01:13:10.801Z,72947
2017-02-07T01:13:20.961Z,72947
2017-02-07T01:13:31.463Z,72944
2017-02-07T01:13:41.997Z,72945
2017-02-07T01:13:52.522Z,72942
2017-02-07T01:14:02.649Z,72942
2017-02-07T01:14:12.795Z,72942
2017-02-07T01:14:23.299Z,72940
2017-02-07T01:14:33.818Z,72944
2017-02-07T01:14:43.973Z,72945
2017-02-07T01:14:54.485Z,72944
2017-02-07T01:15:04.990Z,72942
2017-02-07T01:15:15.499Z,72945
2017-02-07T01:15:26.021Z,72941
2017-02-07T01:15:36.571Z,72942
2017-02-07T01:15:46.741Z,72944
2017-02-07T01:15:56.912Z,72944
2017-02-07T01:16:07.451Z,72945
2017-02-07T01:16:17.599Z,72940
2017-02-07T01:16:28.116Z,72941
2017-02-07T01:16:38.673Z,72939
2017-02-07T01:16:49.191Z,72942
2017-02-07T01:16:59.730Z,72938
2017-02-07T01:17:10.228Z,72938
2017-02-07T01:17:20.381Z,72940
2017-02-07T01:17:30.905Z,72937
2017-02-07T01:17:41.444Z,72940
2017-02-07T01:17:51.970Z,72941
2017-02-07T01:18:02.515Z,72940
2017-02-07T01:18:13.016Z,72941
2017-02-07T01:18:23.543Z,72941
2017-02-07T01:18:34.060Z,72943
2017-02-07T01:18:44.204Z,72942
2017-02-07T01:18:54.364Z,72940
2017-02-07T01:19:04.905Z,72942
2017-02-07T01:19:15.452Z,72939
2017-02-07T01:19:25.599Z,72941
2017-02-07T01:19:36.110Z,72940
2017-02-07T01:19:46.645Z,72942
2017-02-07T01:19:57.150Z,72942
2017-02-07T01:20:07.656Z,72942
2017-02-07T01:20:17.800Z,72940
2017-02-07T01:20:28.319Z,72942
2017-02-07T01:20:38.843Z,72942
2017-02-07T01:20:49.378Z,72940
2017-02-07T01:20:59.926Z,72937
2017-02-07T01:21:10.073Z,72939
2017-02-07T01:21:20.592Z,72940
2017-02-07T01:21:31.121Z,72940
2017-02-07T01:21:41.630Z,72938
2017-02-07T01:21:52.161Z,72938
2017-02-07T01:22:02.698Z,72938
2017-02-07T01:22:12.451Z,72937
2017-02-07T01:22:22.963Z,72938
2017-02-07T01:22:33.469Z,72938
2017-02-07T01:22:43.988Z,72937
2017-02-07T01:22:54.515Z,72936
2017-02-07T01:23:05.055Z,72935
2017-02-07T01:23:15.572Z,72935
2017-02-07T01:23:26.094Z,72938
2017-02-07T01:23:36.604Z,72935
2017-02-07T01:23:47.119Z,72938
2017-02-07T01:23:56.931Z,72937
2017-02-07T01:24:07.455Z,72934
2017-02-07T01:24:18.001Z,72937
2017-02-07T01:24:28.535Z,72937
2017-02-07T01:24:38.693Z,72938
2017-02-07T01:24:49.213Z,72936
2017-02-07T01:24:59.726Z,72936
2017-02-07T01:25:09.892Z,72934
2017-02-07T01:25:20.055Z,72934
2017-02-07T01:25:30.570Z,72935
2017-02-07T01:25:41.126Z,72935
2017-02-07T01:25:51.648Z,72937
2017-02-07T01:26:02.151Z,72938
2017-02-07T01:26:12.312Z,72934
2017-02-07T01:26:22.847Z,72940
2017-02-07T01:26:33.359Z,72940
2017-02-07T01:26:43.896Z,72937
2017-02-07T01:26:54.409Z,72939
2017-02-07T01:27:04.924Z,72938
2017-02-07T01:27:15.431Z,72938
2017-02-07T01:27:25.963Z,72937
2017-02-07T01:27:36.481Z,72940
2017-02-07T01:27:47.018Z,72938
2017-02-07T01:27:57.554Z,72936
2017-02-07T01:28:08.088Z,72937
2017-02-07T01:28:18.229Z,72938
2017-02-07T01:28:28.730Z,72934
2017-02-07T01:28:39.248Z,72937
2017-02-07T01:28:49.780Z,72938
2017-02-07T01:29:00.305Z,72937
2017-02-07T01:29:10.086Z,72935
2017-02-07T01:29:20.237Z,72942
2017-02-07T01:29:30.802Z,72941
2017-02-07T01:29:41.341Z,72939
2017-02-07T01:29:51.884Z,72941
2017-02-07T01:30:02.049Z,72939
2017-02-07T01:30:12.547Z,72940
2017-02-07T01:30:22.712Z,72938
2017-02-07T01:30:33.240Z,72939
2017-02-07T01:30:43.786Z,72938
2017-02-07T01:30:54.299Z,72941
2017-02-07T01:31:04.819Z,72937
2017-02-07T01:31:14.966Z,72941
2017-02-07T01:31:25.485Z,72939
2017-02-07T01:31:36.010Z,72940
2017-02-07T01:31:46.530Z,72942
2017-02-07T01:31:56.693Z,72936
2017-02-07T01:32:06.130Z,72939
2017-02-07T01:32:16.283Z,72938
2017-02-07T01:32:26.435Z,72940
2017-02-07T01:32:36.953Z,72940
2017-02-07T01:32:47.481Z,72939
2017-02-07T01:32:57.992Z,72941
2017-02-07T01:33:08.523Z,72940
2017-02-07T01:33:19.054Z,72941
2017-02-07T01:33:29.569Z,72939
2017-02-07T01:33:39.719Z,72939
2017-02-07T01:33:50.247Z,72938
2017-02-07T01:34:00.783Z,72938
2017-02-07T01:34:10.934Z,72938
2017-02-07T01:34:21.073Z,72938
2017-02-07T01:34:31.588Z,72939
2017-02-07T01:34:42.124Z,72939
2017-02-07T01:34:52.633Z,72937
2017-02-07T01:35:03.137Z,72940
2017-02-07T01:35:12.930Z,72935
2017-02-07T01:35:23.453Z,72936
2017-02-07T01:35:33.971Z,72937
2017-02-07T01:35:44.509Z,72934
2017-02-07T01:35:55.034Z,72937
2017-02-07T01:36:05.541Z,72936
2017-02-07T01:36:15.698Z,72935
2017-02-07T01:36:26.213Z,72936
2017-02-07T01:36:36.721Z,72933
2017-02-07T01:36:47.251Z,72932
2017-02-07T01:36:57.772Z,72936
2017-02-07T01:37:07.931Z,72937
2017-02-07T01:37:18.086Z,72931
2017-02-07T01:37:28.621Z,72936
2017-02-07T01:37:39.165Z,72933
2017-02-07T01:37:49.357Z,72934
2017-02-07T01:37:59.880Z,72934
2017-02-07T01:38:09.637Z,72937
2017-02-07T01:38:19.789Z,72935
2017-02-07T01:38:30.307Z,72931
2017-02-07T01:38:40.836Z,72932
2017-02-07T01:38:51.350Z,72932
2017-02-07T01:39:01.486Z,72932
2017-02-07T01:39:12.009Z,72930
2017-02-07T01:39:22.528Z,72933
2017-02-07T01:39:33.052Z,72929
2017-02-07T01:39:43.589Z,72931
2017-02-07T01:39:53.744Z,72927
2017-02-07T01:40:04.316Z,72932
2017-02-07T01:40:14.477Z,72932
2017-02-07T01:40:25.015Z,72934
2017-02-07T01:40:35.550Z,72930
2017-02-07T01:40:46.068Z,72931
2017-02-07T01:40:56.593Z,72933
2017-02-07T01:41:07.124Z,72929
2017-02-07T01:41:17.286Z,72929
2017-02-07T01:41:27.803Z,72929
2017-02-07T01:41:37.981Z,72931
2017-02-07T01:41:48.529Z,72928
2017-02-07T01:41:59.025Z,72927
2017-02-07T01:42:09.151Z,72928
2017-02-07T01:42:19.692Z,72926
2017-02-07T01:42:30.235Z,72929
2017-02-07T01:42:40.734Z,72930
2017-02-07T01:42:51.275Z,72929
2017-02-07T01:43:01.417Z,72930
2017-02-07T01:43:11.561Z,72927
2017-02-07T01:43:22.080Z,72927
2017-02-07T01:43:32.615Z,72931
2017-02-07T01:43:43.142Z,72927
2017-02-07T01:43:53.674Z,72929
2017-02-07T01:44:04.202Z,72931
2017-02-07T01:44:14.339Z,72924
2017-02-07T01:44:24.852Z,72926
2017-02-07T01:44:35.381Z,72927
2017-02-07T01:44:45.905Z,72925
2017-02-07T01:44:56.451Z,72925
2017-02-07T01:45:06.988Z,72926
2017-02-07T01:45:17.502Z,72925
2017-02-07T01:45:28.024Z,72928
2017-02-07T01:45:38.524Z,72925
2017-02-07T01:45:49.043Z,72925
2017-02-07T01:45:59.578Z,72924
2017-02-07T01:46:10.100Z,72927
2017-02-07T01:46:20.264Z,72924
2017-02-07T01:46:30.791Z,72921
2017-02-07T01:46:41.322Z,72917
2017-02-07T01:46:51.861Z,72920
2017-02-07T01:47:02.015Z,72918
2017-02-07T01:47:12.157Z,72918
2017-02-07T01:47:22.318Z,72920
2017-02-07T01:47:32.835Z,72921
2017-02-07T01:47:42.993Z,72918
2017-02-07T01:47:53.511Z,72917
2017-02-07T01:48:04.041Z,72920
2017-02-07T01:48:13.825Z,72914
2017-02-07T01:48:24.360Z,72916
2017-02-07T01:48:34.885Z,72916
2017-02-07T01:48:45.416Z,72919
2017-02-07T01:48:55.569Z,72917
2017-02-07T01:49:06.116Z,72919
2017-02-07T01:49:15.868Z,72919
2017-02-07T01:49:26.000Z,72918
2017-02-07T01:49:36.514Z,72917
2017-02-07T01:49:47.040Z,72916
2017-02-07T01:49:57.564Z,72917
2017-02-07T01:50:08.122Z,72922
2017-02-07T01:50:18.290Z,72918
2017-02-07T01:50:28.808Z,72917
2017-02-07T01:50:39.338Z,72918
2017-02-07T01:50:49.851Z,72919
2017-02-07T01:51:00.347Z,72915
2017-02-07T01:51:10.882Z,72913
2017-02-07T01:51:21.041Z,72910
2017-02-07T01:51:31.569Z,72914
2017-02-07T01:51:42.105Z,72910
2017-02-07T01:51:52.237Z,72911
2017-02-07T01:52:02.778Z,72910
2017-02-07T01:52:12.555Z,72911
2017-02-07T01:52:23.096Z,72911
2017-02-07T01:52:33.623Z,72915
2017-02-07T01:52:44.130Z,72912
2017-02-07T01:52:54.662Z,72917
2017-02-07T01:53:05.166Z,72913
2017-02-07T01:53:15.693Z,72912
2017-02-07T01:53:26.212Z,72912
2017-02-07T01:53:36.727Z,72909
2017-02-07T01:53:47.248Z,72913
2017-02-07T01:53:57.754Z,72909
2017-02-07T01:54:07.912Z,72912
2017-02-07T01:54:18.064Z,72907
2017-02-07T01:54:28.591Z,72913
2017-02-07T01:54:39.131Z,72910
2017-02-07T01:54:49.292Z,72912
2017-02-07T01:54:59.793Z,72910
2017-02-07T01:55:10.319Z,72910
2017-02-07T01:55:20.479Z,72912
2017-02-07T01:55:30.999Z,72912
2017-02-07T01:55:41.528Z,72910
2017-02-07T01:55:52.044Z,72914
2017-02-07T01:56:02.560Z,72912
2017-02-07T01:56:13.090Z,72911
2017-02-07T01:56:23.246Z,72912
2017-02-07T01:56:33.762Z,72910
2017-02-07T01:56:44.284Z,72909
2017-02-07T01:56:54.816Z,72910
2017-02-07T01:57:05.336Z,72910
2017-02-07T01:57:15.482Z,72909
2017-02-07T01:57:25.999Z,72909
2017-02-07T01:57:36.515Z,72911
2017-02-07T01:57:47.032Z,72911
2017-02-07T01:57:57.536Z,72913
2017-02-07T01:58:08.060Z,72910
2017-02-07T01:58:18.583Z,72911
2017-02-07T01:58:29.119Z,72909
2017-02-07T01:58:39.658Z,72910
2017-02-07T01:58:49.811Z,72914
2017-02-07T01:59:00.337Z,72909
2017-02-07T01:59:10.839Z,72912
2017-02-07T01:59:21.338Z,72913
2017-02-07T01:59:31.871Z,72912
2017-02-07T01:59:42.384Z,72913
2017-02-07T01:59:52.162Z,72913
2017-02-07T02:00:02.688Z,72911
2017-02-07T02:00:12.849Z,72910
2017-02-07T02:00:23.360Z,72912
2017-02-07T02:00:33.876Z,72909
2017-02-07T02:00:44.378Z,72908
2017-02-07T02:00:54.883Z,72909
2017-02-07T02:01:05.031Z,72909
2017-02-07T02:01:15.547Z,72908
2017-02-07T02:01:26.065Z,72908
2017-02-07T02:01:35.847Z,72907
2017-02-07T02:01:46.376Z,72907
2017-02-07T02:01:56.889Z,72905
2017-02-07T02:02:07.415Z,72909
2017-02-07T02:02:17.564Z,72912
2017-02-07T02:02:28.079Z,72909
2017-02-07T02:02:38.599Z,72910
2017-02-07T02:02:49.152Z,72911
2017-02-07T02:02:59.669Z,72911
2017-02-07T02:03:10.196Z,72907
2017-02-07T02:03:20.731Z,72908
2017-02-07T02:03:30.866Z,72908
2017-02-07T02:03:41.368Z,72907
2017-02-07T02:03:51.889Z,72909
2017-02-07T02:04:02.424Z,72911
2017-02-07T02:04:12.958Z,72909
2017-02-07T02:04:23.125Z,72909
2017-02-07T02:04:33.654Z,72909
2017-02-07T02:04:43.796Z,72912
2017-02-07T02:04:54.319Z,72913
2017-02-07T02:05:04.493Z,72909
2017-02-07T02:05:14.286Z,72910
2017-02-07T02:05:24.800Z,72909
2017-02-07T02:05:34.949Z,72911
2017-02-07T02:05:45.482Z,72909
2017-02-07T02:05:55.991Z,72909
2017-02-07T02:06:06.140Z,72907
2017-02-07T02:06:16.654Z,72907
2017-02-07T02:06:27.170Z,72906
2017-02-07T02:06:37.328Z,72908
2017-02-07T02:06:47.467Z,72908
2017-02-07T02:06:57.988Z,72907
2017-02-07T02:07:08.522Z,72908
2017-02-07T02:07:18.667Z,72903
2017-02-07T02:07:29.183Z,72904
2017-02-07T02:07:39.718Z,72903
2017-02-07T02:07:49.880Z,72907
2017-02-07T02:08:00.399Z,72905
2017-02-07T02:08:10.185Z,72905
2017-02-07T02:08:20.718Z,72904
2017-02-07T02:08:31.256Z,72908
2017-02-07T02:08:41.789Z,72908
2017-02-07T02:08:52.310Z,72906
2017-02-07T02:09:02.848Z,72906
2017-02-07T02:09:12.995Z,72907
2017-02-07T02:09:23.510Z,72908
2017-02-07T02:09:34.048Z,72905
2017-02-07T02:09:44.581Z,72905
2017-02-07T02:09:55.096Z,72907
2017-02-07T02:10:05.609Z,72903
2017-02-07T02:10:15.771Z,72904
2017-02-07T02:10:26.311Z,72905
2017-02-07T02:10:36.449Z,72904
2017-02-07T02:10:46.971Z,72903
2017-02-07T02:10:57.486Z,72904
2017-02-07T02:11:08.011Z,72903
2017-02-07T02:11:18.160Z,72904
2017-02-07T02:11:28.689Z,72905
2017-02-07T02:11:39.190Z,72903
2017-02-07T02:11:49.708Z,72907
2017-02-07T02:12:00.222Z,72904
2017-02-07T02:12:10.741Z,72906
2017-02-07T02:12:21.241Z,72905
2017-02-07T02:12:31.388Z,72903
2017-02-07T02:12:41.896Z,72903
2017-02-07T02:12:52.420Z,72902
2017-02-07T02:13:02.944Z,72902
2017-02-07T02:13:13.096Z,72908
2017-02-07T02:13:23.603Z,72907
2017-02-07T02:13:34.129Z,72905
2017-02-07T02:13:44.668Z,72903
2017-02-07T02:13:55.195Z,72903
2017-02-07T02:14:05.724Z,72903